createdAt,value
2017-11-09T00:00:39.553Z,7.60
2017-11-09T00:03:08.756Z,7.80
2017-11-09T00:05:43.438Z,7.80
2017-11-09T00:08:11.589Z,7.80
2017-11-09T00:10:40.762Z,7.80
2017-11-09T00:13:09.060Z,7.80
2017-11-09T00:15:38.324Z,7.90
2017-11-09T00:18:06.791Z,7.90
2017-11-09T00:20:34.971Z,7.90
2017-11-09T00:23:03.686Z,7.90
2017-11-09T00:25:31.838Z,7.80
2017-11-09T00:28:00.436Z,7.80
2017-11-09T00:30:28.627Z,7.70
2017-11-09T00:32:56.767Z,7.70
2017-11-09T00:35:25.922Z,7.60
2017-11-09T00:37:54.562Z,7.70
2017-11-09T00:40:22.728Z,7.80
2017-11-09T00:42:51.162Z,7.70
2017-11-09T00:45:20.331Z,7.70
2017-11-09T00:47:48.454Z,7.80
2017-11-09T00:50:17.319Z,7.80
2017-11-09T00:52:45.556Z,7.70
2017-11-09T00:55:14.251Z,7.60
2017-11-09T00:57:42.953Z,7.60
2017-11-09T01:00:11.887Z,7.70
2017-11-09T01:02:40.098Z,7.80
2017-11-09T01:05:09.125Z,7.80
2017-11-09T01:07:38.158Z,7.70
2017-11-09T01:10:06.292Z,7.60
2017-11-09T01:12:34.469Z,7.60
2017-11-09T01:15:03.220Z,7.60
2017-11-09T01:17:31.325Z,7.60
2017-11-09T01:20:00.240Z,7.60
2017-11-09T01:22:28.371Z,7.60
2017-11-09T01:24:56.539Z,7.60
2017-11-09T01:27:25.673Z,7.70
2017-11-09T01:29:54.120Z,7.70
2017-11-09T01:32:23.141Z,7.70
2017-11-09T01:34:51.358Z,7.80
2017-11-09T01:37:20.464Z,7.80
2017-11-09T01:39:48.637Z,7.90
2017-11-09T01:42:16.946Z,7.80
2017-11-09T01:44:45.081Z,7.80
2017-11-09T01:47:14.513Z,7.70
2017-11-09T01:49:43.085Z,7.70
2017-11-09T01:52:11.958Z,7.60
2017-11-09T01:54:40.376Z,7.70
2017-11-09T01:57:08.611Z,7.60
2017-11-09T01:59:38.317Z,7.60
2017-11-09T02:02:07.384Z,7.60
2017-11-09T02:04:35.613Z,7.50
2017-11-09T02:07:04.077Z,7.60
2017-11-09T02:09:32.679Z,7.50
2017-11-09T02:12:00.871Z,7.50
2017-11-09T02:14:29.219Z,7.40
2017-11-09T02:16:58.309Z,7.50
2017-11-09T02:19:26.464Z,7.60
2017-11-09T02:21:54.594Z,7.70
2017-11-09T02:24:27.664Z,7.60
2017-11-09T02:26:56.549Z,7.60
2017-11-09T02:29:24.650Z,7.60
2017-11-09T02:31:52.817Z,7.60
2017-11-09T02:34:22.101Z,7.70
2017-11-09T02:36:50.501Z,7.70
2017-11-09T02:39:18.661Z,7.80
2017-11-09T02:41:46.768Z,7.70
2017-11-09T02:44:15.123Z,7.70
2017-11-09T02:46:43.320Z,7.60
2017-11-09T02:49:11.434Z,7.60
2017-11-09T02:51:39.578Z,7.60
2017-11-09T02:54:07.686Z,7.60
2017-11-09T02:56:35.832Z,7.70
2017-11-09T02:59:04.001Z,7.70
2017-11-09T03:01:32.106Z,7.70
2017-11-09T03:04:00.239Z,7.60
2017-11-09T03:06:29.825Z,7.60
2017-11-09T03:08:57.977Z,7.60
2017-11-09T03:11:26.166Z,7.60
2017-11-09T03:13:54.505Z,7.70
2017-11-09T03:16:23.688Z,7.60
2017-11-09T03:18:51.813Z,7.70
2017-11-09T03:21:19.954Z,7.70
2017-11-09T03:23:48.951Z,7.70
2017-11-09T03:26:18.032Z,7.70
2017-11-09T03:28:46.153Z,7.70
2017-11-09T03:31:15.251Z,7.60
2017-11-09T03:33:44.449Z,7.60
2017-11-09T03:36:13.310Z,7.60
2017-11-09T03:38:41.463Z,7.60
2017-11-09T03:41:09.562Z,7.70
2017-11-09T03:43:37.748Z,7.50
2017-11-09T03:46:05.894Z,7.50
2017-11-09T03:48:34.040Z,7.40
2017-11-09T03:51:02.169Z,7.40
2017-11-09T03:53:32.203Z,7.40
2017-11-09T03:56:01.285Z,7.30
2017-11-09T03:58:29.426Z,7.40
2017-11-09T04:00:57.559Z,7.40
2017-11-09T04:03:25.798Z,7.40
2017-11-09T04:05:55.092Z,7.40
2017-11-09T04:08:23.226Z,7.40
2017-11-09T04:10:51.342Z,7.40
2017-11-09T04:13:19.581Z,7.40
2017-11-09T04:15:47.702Z,7.40
2017-11-09T04:18:16.227Z,7.30
2017-11-09T04:20:44.379Z,7.40
2017-11-09T04:23:12.577Z,7.40
2017-11-09T04:25:40.753Z,7.40
2017-11-09T04:28:09.597Z,7.50
2017-11-09T04:30:37.769Z,7.50
2017-11-09T04:33:06.688Z,7.60
2017-11-09T04:35:34.804Z,7.50
2017-11-09T04:38:03.541Z,7.50
2017-11-09T04:40:31.651Z,7.50
2017-11-09T04:42:59.746Z,7.40
2017-11-09T04:45:28.832Z,7.40
2017-11-09T04:47:56.949Z,7.40
2017-11-09T04:50:25.135Z,7.40
2017-11-09T04:52:53.266Z,7.50
2017-11-09T04:55:21.415Z,7.50
2017-11-09T04:57:49.562Z,7.50
2017-11-09T05:00:17.681Z,7.40
2017-11-09T05:02:46.835Z,7.50
2017-11-09T05:05:15.040Z,7.50
2017-11-09T05:07:44.095Z,7.50
2017-11-09T05:10:12.193Z,7.60
2017-11-09T05:12:40.453Z,7.60
2017-11-09T05:15:08.662Z,7.60
2017-11-09T05:17:37.983Z,7.50
2017-11-09T05:20:06.157Z,7.50
2017-11-09T05:22:35.759Z,7.70
2017-11-09T05:25:03.998Z,7.70
2017-11-09T05:27:32.123Z,7.70
2017-11-09T05:30:01.803Z,7.80
2017-11-09T05:32:30.150Z,7.80
2017-11-09T05:34:59.219Z,7.80
2017-11-09T05:37:27.445Z,7.80
2017-11-09T05:39:55.847Z,7.80
2017-11-09T05:42:25.943Z,7.80
2017-11-09T05:44:54.253Z,7.70
2017-11-09T05:47:23.206Z,7.60
2017-11-09T05:49:51.339Z,7.40
2017-11-09T05:52:19.885Z,7.40
2017-11-09T05:54:48.076Z,7.40
2017-11-09T05:57:17.177Z,7.30
2017-11-09T05:59:46.429Z,7.40
2017-11-09T06:02:14.921Z,7.40
2017-11-09T06:04:43.116Z,7.50
2017-11-09T06:07:14.083Z,7.40
2017-11-09T06:09:42.192Z,7.50
2017-11-09T06:12:11.489Z,7.50
2017-11-09T06:14:39.705Z,7.50
2017-11-09T06:17:08.769Z,7.60
2017-11-09T06:19:37.161Z,7.70
2017-11-09T06:22:06.061Z,7.70
2017-11-09T06:24:35.178Z,7.60
2017-11-09T06:27:03.512Z,7.60
2017-11-09T06:29:32.431Z,7.60
2017-11-09T06:32:01.555Z,7.50
2017-11-09T06:34:29.666Z,7.50
2017-11-09T06:36:58.084Z,7.50
2017-11-09T06:39:26.527Z,7.60
2017-11-09T06:41:54.885Z,7.60
2017-11-09T06:44:24.973Z,7.50
2017-11-09T06:46:53.880Z,7.50
2017-11-09T06:49:22.820Z,7.60
2017-11-09T06:51:52.475Z,7.70
2017-11-09T06:54:21.605Z,7.70
2017-11-09T06:56:49.777Z,7.70
2017-11-09T06:59:18.234Z,7.60
2017-11-09T07:01:46.473Z,7.50
2017-11-09T07:04:14.629Z,7.40
2017-11-09T07:06:42.951Z,7.40
2017-11-09T07:09:11.978Z,7.40
2017-11-09T07:11:40.112Z,7.40
2017-11-09T07:14:09.746Z,7.40
2017-11-09T07:16:37.893Z,7.40
2017-11-09T07:19:06.821Z,7.40
2017-11-09T07:21:35.184Z,7.30
2017-11-09T07:24:04.430Z,7.40
2017-11-09T07:26:32.544Z,7.30
2017-11-09T07:29:01.864Z,7.30
2017-11-09T07:31:29.963Z,7.30
2017-11-09T07:33:58.095Z,7.40
2017-11-09T07:36:27.052Z,7.40
2017-11-09T07:38:55.152Z,7.40
2017-11-09T07:41:24.477Z,7.50
2017-11-09T07:43:54.499Z,7.60
2017-11-09T07:46:22.717Z,7.60
2017-11-09T07:48:50.871Z,7.60
2017-11-09T07:51:19.816Z,7.70
2017-11-09T07:53:48.145Z,7.70
2017-11-09T07:56:16.244Z,7.70
2017-11-09T07:58:44.370Z,7.70
2017-11-09T08:01:12.768Z,7.70
2017-11-09T08:03:41.072Z,7.70
2017-11-09T08:06:09.423Z,7.80
2017-11-09T08:08:38.429Z,7.80
2017-11-09T08:11:07.429Z,7.70
2017-11-09T08:13:35.677Z,7.70
2017-11-09T08:16:04.873Z,7.60
2017-11-09T08:18:33.769Z,7.70
2017-11-09T08:21:01.897Z,7.70
2017-11-09T08:23:30.765Z,7.60
2017-11-09T08:26:00.229Z,7.70
2017-11-09T08:28:33.449Z,7.60
2017-11-09T08:31:06.945Z,7.70
2017-11-09T08:33:38.324Z,7.70
2017-11-09T08:36:06.546Z,7.70
2017-11-09T08:38:34.686Z,7.60
2017-11-09T08:41:03.766Z,7.50
2017-11-09T08:43:31.949Z,7.40
2017-11-09T08:46:00.081Z,7.40
2017-11-09T08:48:28.186Z,7.40
2017-11-09T08:50:56.325Z,7.40
2017-11-09T08:53:24.421Z,7.50
2017-11-09T08:55:53.450Z,7.50
2017-11-09T08:58:21.553Z,7.60
2017-11-09T09:00:49.695Z,7.50
2017-11-09T09:03:17.821Z,7.50
2017-11-09T09:05:46.605Z,7.50
2017-11-09T09:08:14.799Z,7.60
2017-11-09T09:10:43.004Z,7.70
2017-11-09T09:13:11.728Z,7.80
2017-11-09T09:15:41.044Z,7.90
2017-11-09T09:18:12.448Z,7.90
2017-11-09T09:23:47.649Z,7.90
2017-11-09T09:26:16.233Z,7.90
2017-11-09T09:29:00.021Z,7.90
2017-11-09T09:31:30.013Z,7.80
2017-11-09T09:34:16.204Z,7.70
2017-11-09T09:36:49.918Z,7.80
2017-11-09T09:39:21.449Z,7.90
2017-11-09T09:41:49.562Z,8.00
2017-11-09T09:44:18.001Z,7.90
2017-11-09T09:46:46.197Z,7.80
2017-11-09T09:49:15.466Z,7.90
2017-11-09T09:51:43.610Z,7.90
2017-11-09T09:54:11.819Z,8.00
2017-11-09T09:56:39.967Z,8.00
2017-11-09T09:59:08.853Z,8.00
2017-11-09T10:01:37.004Z,8.00
2017-11-09T10:04:05.217Z,8.10
2017-11-09T10:06:33.345Z,8.10
2017-11-09T10:09:01.482Z,8.10
2017-11-09T10:11:29.789Z,8.10
2017-11-09T10:13:58.734Z,8.10
2017-11-09T10:16:26.878Z,8.10
2017-11-09T10:18:55.097Z,8.00
2017-11-09T10:21:23.245Z,7.90
2017-11-09T10:23:51.476Z,7.90
2017-11-09T10:26:19.593Z,7.90
2017-11-09T10:28:47.707Z,8.00
2017-11-09T10:31:15.841Z,8.00
2017-11-09T10:33:44.019Z,8.10
2017-11-09T10:36:12.210Z,8.00
2017-11-09T10:38:40.478Z,8.10
2017-11-09T10:41:08.864Z,8.20
2017-11-09T10:43:36.986Z,8.20
2017-11-09T10:46:05.113Z,8.20
2017-11-09T10:48:33.226Z,8.20
2017-11-09T10:51:01.402Z,8.20
2017-11-09T10:53:30.323Z,8.10
2017-11-09T10:55:59.198Z,8.10
2017-11-09T10:58:27.308Z,8.00
2017-11-09T11:00:56.333Z,8.00
2017-11-09T11:03:24.427Z,8.10
2017-11-09T11:05:53.302Z,8.10
2017-11-09T11:08:22.194Z,8.20
2017-11-09T11:10:51.091Z,8.10
2017-11-09T11:13:19.985Z,8.00
2017-11-09T11:15:48.869Z,8.00
2017-11-09T11:18:18.033Z,7.90
2017-11-09T11:20:46.138Z,7.90
2017-11-09T11:23:15.060Z,8.10
2017-11-09T11:25:44.093Z,8.00
2017-11-09T11:28:13.184Z,8.00
2017-11-09T11:30:41.327Z,8.10
2017-11-09T11:33:09.454Z,8.10
2017-11-09T11:35:37.597Z,8.20
2017-11-09T11:38:05.728Z,8.20
2017-11-09T11:40:33.878Z,8.10
2017-11-09T11:43:01.989Z,8.30
2017-11-09T11:45:30.101Z,8.30
2017-11-09T11:48:00.069Z,8.10
2017-11-09T11:50:28.167Z,8.20
2017-11-09T11:52:56.290Z,8.20
2017-11-09T11:55:25.182Z,8.30
2017-11-09T11:57:54.100Z,8.30
2017-11-09T12:00:23.190Z,8.30
2017-11-09T12:02:55.285Z,8.30
2017-11-09T12:05:23.402Z,8.30
2017-11-09T12:07:52.292Z,8.40
2017-11-09T12:10:23.160Z,8.30
2017-11-09T12:12:51.299Z,8.40
2017-11-09T12:15:19.418Z,8.30
2017-11-09T12:17:47.549Z,8.30
2017-11-09T12:20:16.678Z,8.30
2017-11-09T12:22:44.793Z,8.50
2017-11-09T12:25:12.926Z,8.50
2017-11-09T12:27:41.060Z,8.50
2017-11-09T12:30:09.337Z,8.60
2017-11-09T12:32:37.455Z,8.50
2017-11-09T12:35:06.530Z,8.50
2017-11-09T12:37:35.381Z,8.50
2017-11-09T12:40:03.793Z,8.50
2017-11-09T12:42:32.653Z,8.50
2017-11-09T12:45:00.814Z,8.50
2017-11-09T12:47:28.916Z,8.40
2017-11-09T12:49:58.162Z,8.40
2017-11-09T12:52:26.297Z,8.40
2017-11-09T12:54:55.199Z,8.40
2017-11-09T12:57:23.332Z,8.40
2017-11-09T12:59:51.454Z,8.20
2017-11-09T13:02:19.632Z,8.20
2017-11-09T13:04:47.752Z,8.20
2017-11-09T13:07:15.863Z,8.40
2017-11-09T13:09:44.043Z,8.40
2017-11-09T13:12:12.202Z,8.40
2017-11-09T13:14:40.327Z,8.50
2017-11-09T13:17:08.437Z,8.50
2017-11-09T13:19:36.557Z,8.40
2017-11-09T13:22:04.718Z,8.40
2017-11-09T13:24:32.886Z,8.40
2017-11-09T13:27:01.798Z,8.50
2017-11-09T13:29:29.916Z,8.40
2017-11-09T13:31:58.089Z,8.30
2017-11-09T13:34:26.249Z,8.30
2017-11-09T13:36:54.378Z,8.20
2017-11-09T13:39:22.515Z,8.10
2017-11-09T13:41:51.535Z,8.20
2017-11-09T13:44:19.646Z,8.20
2017-11-09T13:46:47.780Z,8.20
2017-11-09T13:49:15.897Z,8.20
2017-11-09T13:51:44.038Z,8.20
2017-11-09T13:54:12.169Z,8.20
2017-11-09T13:56:41.050Z,8.20
2017-11-09T13:59:09.223Z,8.10
2017-11-09T14:01:37.442Z,8.20
2017-11-09T14:04:05.540Z,8.30
2017-11-09T14:06:34.736Z,8.20
2017-11-09T14:09:04.019Z,8.20
2017-11-09T14:11:32.172Z,8.20
2017-11-09T14:14:00.287Z,8.20
2017-11-09T14:16:28.606Z,8.30
2017-11-09T14:18:56.722Z,8.30
2017-11-09T14:21:24.838Z,8.20
2017-11-09T14:23:52.968Z,8.20
2017-11-09T14:26:21.106Z,8.30
2017-11-09T14:28:50.019Z,8.30
2017-11-09T14:31:18.200Z,8.30
2017-11-09T14:33:47.335Z,8.30
2017-11-09T14:36:15.478Z,8.40
2017-11-09T14:38:43.586Z,8.40
2017-11-09T14:41:11.706Z,8.50
2017-11-09T14:43:40.929Z,8.50
2017-11-09T14:46:10.035Z,8.60
2017-11-09T14:48:38.281Z,8.60
2017-11-09T14:51:06.425Z,8.50
2017-11-09T14:53:34.569Z,8.40
2017-11-09T14:56:02.682Z,8.40
2017-11-09T14:58:31.543Z,8.50
2017-11-09T15:01:01.582Z,8.40
2017-11-09T15:03:29.671Z,8.30
2017-11-09T15:05:59.985Z,8.30
2017-11-09T15:08:28.903Z,8.20
2017-11-09T15:10:57.079Z,8.30
2017-11-09T15:13:25.277Z,8.30
2017-11-09T15:15:55.326Z,8.20
2017-11-09T15:18:23.419Z,8.30
2017-11-09T15:20:51.613Z,8.20
2017-11-09T15:23:19.761Z,8.10
2017-11-09T15:25:47.927Z,8.00
2017-11-09T15:28:16.096Z,8.00
2017-11-09T15:30:44.339Z,8.00
2017-11-09T15:33:12.557Z,8.00
2017-11-09T15:35:46.061Z,8.00
2017-11-09T15:38:16.817Z,8.00
2017-11-09T15:40:44.948Z,8.00
2017-11-09T15:43:13.286Z,8.00
2017-11-09T15:45:41.405Z,7.90
2017-11-09T15:48:09.745Z,7.90
2017-11-09T15:50:37.848Z,8.00
2017-11-09T15:53:05.968Z,8.00
2017-11-09T15:55:34.102Z,8.00
2017-11-09T15:58:02.229Z,8.00
2017-11-09T16:00:30.357Z,8.00
2017-11-09T16:02:58.538Z,8.00
2017-11-09T16:05:26.701Z,8.00
2017-11-09T16:07:55.726Z,8.00
2017-11-09T16:10:23.902Z,7.90
2017-11-09T16:12:52.046Z,7.90
2017-11-09T16:15:20.160Z,7.90
2017-11-09T16:17:48.617Z,7.80
2017-11-09T16:20:16.766Z,7.90
2017-11-09T16:22:44.871Z,7.90
2017-11-09T16:25:13.006Z,7.90
2017-11-09T16:27:41.123Z,7.90
2017-11-09T16:30:09.999Z,7.90
2017-11-09T16:32:38.166Z,7.90
2017-11-09T16:35:06.298Z,7.90
2017-11-09T16:37:34.593Z,7.80
2017-11-09T16:40:03.093Z,7.80
2017-11-09T16:42:37.125Z,7.80
2017-11-09T16:45:05.272Z,7.90
2017-11-09T16:47:34.266Z,7.90
2017-11-09T16:50:02.462Z,7.80
2017-11-09T16:52:30.597Z,7.80
2017-11-09T16:54:58.705Z,7.80
2017-11-09T16:57:26.809Z,7.80
2017-11-09T16:59:55.002Z,7.80
2017-11-09T17:02:24.008Z,7.80
2017-11-09T17:04:52.133Z,7.80
2017-11-09T17:07:25.004Z,7.80
2017-11-09T17:09:53.188Z,7.80
2017-11-09T17:12:21.301Z,7.80
2017-11-09T17:14:49.420Z,7.80
2017-11-09T17:17:18.290Z,7.70
2017-11-09T17:19:49.110Z,7.70
2017-11-09T17:22:23.671Z,7.70
2017-11-09T17:24:55.094Z,7.70
2017-11-09T17:27:23.250Z,7.80
2017-11-09T17:29:51.352Z,7.80
2017-11-09T17:32:19.496Z,7.80
2017-11-09T17:34:47.669Z,7.70
2017-11-09T17:37:19.380Z,7.70
2017-11-09T17:39:47.503Z,7.70
2017-11-09T17:42:19.382Z,7.70
2017-11-09T17:44:47.537Z,7.70
2017-11-09T17:47:15.709Z,7.70
2017-11-09T17:49:43.843Z,7.70
2017-11-09T17:52:11.962Z,7.70
2017-11-09T17:54:40.105Z,7.70
2017-11-09T17:57:10.049Z,7.70
2017-11-09T18:02:37.977Z,7.70
2017-11-09T18:05:06.875Z,7.60
2017-11-09T18:07:35.928Z,7.60
2017-11-09T18:10:04.147Z,7.50
2017-11-09T18:12:32.289Z,7.50
2017-11-09T18:15:00.425Z,7.60
2017-11-09T18:17:28.521Z,7.50
2017-11-09T18:19:56.678Z,7.60
2017-11-09T18:22:28.500Z,7.60
2017-11-09T18:24:57.610Z,7.60
2017-11-09T18:27:25.807Z,7.60
2017-11-09T18:29:53.914Z,7.60
2017-11-09T18:32:25.845Z,7.60
2017-11-09T18:34:53.974Z,7.60
2017-11-09T18:37:22.279Z,7.50
2017-11-09T18:39:50.444Z,7.60
2017-11-09T18:42:20.225Z,7.60
2017-11-09T18:44:49.173Z,7.60
2017-11-09T18:47:17.311Z,7.60
2017-11-09T18:49:45.652Z,7.60
2017-11-09T18:52:13.776Z,7.60
2017-11-09T18:54:41.907Z,7.60
2017-11-09T18:57:10.808Z,7.60
2017-11-09T18:59:45.361Z,7.60
2017-11-09T19:02:13.489Z,7.50
2017-11-09T19:04:45.054Z,7.60
2017-11-09T19:07:14.162Z,7.60
2017-11-09T19:09:42.358Z,7.60
2017-11-09T19:12:10.486Z,7.60
2017-11-09T19:14:40.347Z,7.60
2017-11-09T19:17:09.524Z,7.60
2017-11-09T19:19:37.668Z,7.60
2017-11-09T19:22:05.944Z,7.50
2017-11-09T19:24:34.093Z,7.50
2017-11-09T19:27:02.215Z,7.60
2017-11-09T19:29:30.338Z,7.60
2017-11-09T19:31:58.562Z,7.60
2017-11-09T19:34:27.423Z,7.70
2017-11-09T19:36:56.405Z,7.70
2017-11-09T19:39:25.488Z,7.70
2017-11-09T19:41:53.608Z,7.70
2017-11-09T19:44:21.777Z,7.60
2017-11-09T19:46:49.915Z,7.60
2017-11-09T19:49:18.006Z,7.70
2017-11-09T19:51:46.499Z,7.70
2017-11-09T19:54:14.652Z,7.70
2017-11-09T19:56:42.759Z,7.70
2017-11-09T19:59:10.884Z,7.70
2017-11-09T20:01:38.998Z,7.60
2017-11-09T20:04:08.038Z,7.60
2017-11-09T20:06:36.137Z,7.50
2017-11-09T20:09:04.291Z,7.50
2017-11-09T20:11:32.398Z,7.50
2017-11-09T20:14:00.561Z,7.50
2017-11-09T20:16:28.718Z,7.50
2017-11-09T20:18:57.744Z,7.50
2017-11-09T20:21:25.906Z,7.50
2017-11-09T20:23:54.173Z,7.50
2017-11-09T20:26:22.346Z,7.40
2017-11-09T20:28:50.570Z,7.40
2017-11-09T20:31:22.399Z,7.50
2017-11-09T20:33:50.526Z,7.50
2017-11-09T20:36:18.625Z,7.50
2017-11-09T20:38:47.729Z,7.50
2017-11-09T20:41:15.874Z,7.50
2017-11-09T20:43:43.990Z,7.60
2017-11-09T20:46:12.121Z,7.60
2017-11-09T20:48:40.254Z,7.60
2017-11-09T20:51:08.390Z,7.50
2017-11-09T20:53:37.181Z,7.40
2017-11-09T20:56:05.302Z,7.40
2017-11-09T20:58:36.281Z,7.50
2017-11-09T21:01:04.413Z,7.50
2017-11-09T21:03:32.513Z,7.50
2017-11-09T21:06:01.584Z,7.50
2017-11-09T21:08:29.694Z,7.50
2017-11-09T21:10:57.803Z,7.50
2017-11-09T21:13:25.927Z,7.50
2017-11-09T21:15:55.136Z,7.40
2017-11-09T21:18:23.222Z,7.40
2017-11-09T21:20:51.382Z,7.40
2017-11-09T21:23:19.505Z,7.40
2017-11-09T21:25:48.547Z,7.40
2017-11-09T21:28:17.380Z,7.50
2017-11-09T21:30:46.369Z,7.40
2017-11-09T21:33:16.390Z,7.50
2017-11-09T21:35:45.288Z,7.50
2017-11-09T21:38:14.229Z,7.50
2017-11-09T21:40:42.376Z,7.50
2017-11-09T21:43:10.500Z,7.40
2017-11-09T21:45:38.695Z,7.20
2017-11-09T21:48:06.904Z,7.40
2017-11-09T21:50:35.121Z,7.40
2017-11-09T21:53:03.291Z,7.30
2017-11-09T21:55:31.439Z,7.40
2017-11-09T21:58:05.245Z,7.40
2017-11-09T22:00:33.525Z,7.40
2017-11-09T22:03:01.714Z,7.30
2017-11-09T22:05:29.889Z,7.30
2017-11-09T22:07:58.983Z,7.30
2017-11-09T22:10:27.200Z,7.20
2017-11-09T22:12:55.611Z,7.10
2017-11-09T22:15:23.798Z,7.20
2017-11-09T22:17:52.080Z,7.20
2017-11-09T22:20:20.242Z,7.20
2017-11-09T22:22:48.465Z,7.10
2017-11-09T22:25:16.590Z,7.10
2017-11-09T22:27:44.745Z,7.10
2017-11-09T22:30:12.985Z,7.10
2017-11-09T22:32:41.090Z,7.00
2017-11-09T22:35:10.178Z,7.10
2017-11-09T22:37:39.053Z,7.00
2017-11-09T22:40:07.201Z,7.00
2017-11-09T22:42:35.293Z,7.10
2017-11-09T22:45:03.505Z,7.10
2017-11-09T22:47:31.601Z,7.00
2017-11-09T22:49:59.774Z,7.10
2017-11-09T22:52:27.936Z,7.00
2017-11-09T22:54:56.069Z,7.10
2017-11-09T22:57:25.030Z,7.10
2017-11-09T22:59:53.155Z,7.00
2017-11-09T23:02:21.261Z,7.00
2017-11-09T23:04:49.651Z,7.00
2017-11-09T23:07:17.750Z,7.00
2017-11-09T23:09:46.693Z,7.10
2017-11-09T23:12:14.826Z,7.10
2017-11-09T23:14:42.942Z,7.10
2017-11-09T23:17:11.053Z,7.10
2017-11-09T23:19:39.234Z,7.10
2017-11-09T23:22:08.089Z,7.10
2017-11-09T23:24:36.182Z,7.00
2017-11-09T23:27:04.330Z,7.10
2017-11-09T23:29:32.486Z,7.10
2017-11-09T23:32:02.402Z,7.10
2017-11-09T23:34:32.728Z,7.10
2017-11-09T23:37:00.970Z,7.10
2017-11-09T23:39:29.134Z,7.10
2017-11-09T23:41:57.316Z,7.00
2017-11-09T23:44:28.526Z,7.00
2017-11-09T23:46:59.583Z,7.00
2017-11-09T23:49:28.852Z,7.00
2017-11-09T23:51:57.057Z,6.90
2017-11-09T23:54:27.242Z,6.90
2017-11-09T23:56:56.784Z,7.00
2017-11-09T23:59:26.068Z,6.90
